Dingus, Kentucky
Current Conditions -  °F | °C
As of 3:53 PM on Saturday 25 Oct 2014 (Local Time) from KJKL Reporting Station
Few Clouds Few Clouds  
Wind Chill: 69°   Ceiling: Unl
Heat Index: 69°   Visibility: 10mi
Dew Point: 51°   Wind: 6mph
Humidity: 53%   Direction: NA
Pressure: 29.99"   Gusts: NA
Location:  37.937°N, 83.2694°W
Report Text: KJKL 251953Z AUTO VRB05KT 10SM FEW025 FEW037 21/11 A2999 RMK AO2 SLP149 T02060106
Loading
Personal Weather Stations






























Interactive Weather Map
Tropical Storm Tracking
New forecast layout! Learn more

10-Day Weather Forecast

Advertisements
Track Severe Weather on mobile